sensor_id;sensor_type;location;lat;lon;timestamp;P1;durP1;ratioP1;P2;durP2;ratioP2
69890;SDS011;57170;43.964;21.262;2023-06-22T00:01:51;29.15;;;26.13;;
69890;SDS011;57170;43.964;21.262;2023-06-22T00:04:17;31.45;;;25.15;;
69890;SDS011;57170;43.964;21.262;2023-06-22T00:06:44;26.23;;;23.52;;
69890;SDS011;57170;43.964;21.262;2023-06-22T00:09:10;30.23;;;25.60;;
69890;SDS011;57170;43.964;21.262;2023-06-22T00:11:36;25.30;;;22.65;;
69890;SDS011;57170;43.964;21.262;2023-06-22T00:14:03;30.08;;;25.13;;
69890;SDS011;57170;43.964;21.262;2023-06-22T00:16:29;27.48;;;24.05;;
69890;SDS011;57170;43.964;21.262;2023-06-22T00:18:55;28.02;;;25.10;;
69890;SDS011;57170;43.964;21.262;2023-06-22T00:21:23;24.35;;;21.88;;
69890;SDS011;57170;43.964;21.262;2023-06-22T00:23:49;28.67;;;24.88;;
69890;SDS011;57170;43.964;21.262;2023-06-22T00:26:15;29.20;;;26.13;;
69890;SDS011;57170;43.964;21.262;2023-06-22T00:28:42;28.15;;;25.13;;
69890;SDS011;57170;43.964;21.262;2023-06-22T00:31:08;28.60;;;25.65;;
69890;SDS011;57170;43.964;21.262;2023-06-22T00:33:34;29.48;;;26.50;;
69890;SDS011;57170;43.964;21.262;2023-06-22T00:36:00;26.92;;;24.33;;
69890;SDS011;57170;43.964;21.262;2023-06-22T00:38:28;28.80;;;25.92;;
69890;SDS011;57170;43.964;21.262;2023-06-22T00:40:54;27.50;;;24.70;;
69890;SDS011;57170;43.964;21.262;2023-06-22T00:43:20;28.85;;;25.48;;
69890;SDS011;57170;43.964;21.262;2023-06-22T00:45:47;28.40;;;25.52;;
69890;SDS011;57170;43.964;21.262;2023-06-22T00:48:13;30.42;;;27.23;;
69890;SDS011;57170;43.964;21.262;2023-06-22T00:50:40;30.65;;;27.42;;
69890;SDS011;57170;43.964;21.262;2023-06-22T00:53:07;29.48;;;26.35;;
69890;SDS011;57170;43.964;21.262;2023-06-22T00:55:43;29.58;;;26.52;;
69890;SDS011;57170;43.964;21.262;2023-06-22T00:58:13;31.05;;;26.10;;
69890;SDS011;57170;43.964;21.262;2023-06-22T01:00:39;30.05;;;26.67;;
69890;SDS011;57170;43.964;21.262;2023-06-22T01:03:06;27.67;;;24.75;;
69890;SDS011;57170;43.964;21.262;2023-06-22T01:05:34;28.05;;;24.52;;
69890;SDS011;57170;43.964;21.262;2023-06-22T01:08:16;30.88;;;27.58;;
69890;SDS011;57170;43.964;21.262;2023-06-22T01:10:52;33.92;;;28.38;;
69890;SDS011;57170;43.964;21.262;2023-06-22T01:13:28;38.83;;;26.75;;
69890;SDS011;57170;43.964;21.262;2023-06-22T01:18:24;32.08;;;27.58;;
69890;SDS011;57170;43.964;21.262;2023-06-22T01:20:54;31.67;;;27.35;;
69890;SDS011;57170;43.964;21.262;2023-06-22T01:28:23;29.58;;;26.50;;
69890;SDS011;57170;43.964;21.262;2023-06-22T01:30:50;29.05;;;25.95;;
69890;SDS011;57170;43.964;21.262;2023-06-22T01:33:28;28.77;;;25.02;;
69890;SDS011;57170;43.964;21.262;2023-06-22T01:35:55;30.13;;;26.10;;
69890;SDS011;57170;43.964;21.262;2023-06-22T01:38:21;29.55;;;26.55;;
69890;SDS011;57170;43.964;21.262;2023-06-22T01:40:47;33.15;;;29.25;;
69890;SDS011;57170;43.964;21.262;2023-06-22T01:43:14;29.83;;;26.70;;
69890;SDS011;57170;43.964;21.262;2023-06-22T01:45:41;31.30;;;28.20;;
69890;SDS011;57170;43.964;21.262;2023-06-22T01:48:07;31.13;;;27.73;;
69890;SDS011;57170;43.964;21.262;2023-06-22T01:50:33;30.00;;;26.67;;
69890;SDS011;57170;43.964;21.262;2023-06-22T01:53:00;30.35;;;26.23;;
69890;SDS011;57170;43.964;21.262;2023-06-22T01:55:26;31.20;;;28.30;;
69890;SDS011;57170;43.964;21.262;2023-06-22T01:57:52;32.50;;;28.65;;
69890;SDS011;57170;43.964;21.262;2023-06-22T02:00:19;36.88;;;28.35;;
69890;SDS011;57170;43.964;21.262;2023-06-22T02:05:15;32.00;;;27.77;;
69890;SDS011;57170;43.964;21.262;2023-06-22T02:07:46;31.88;;;28.63;;
69890;SDS011;57170;43.964;21.262;2023-06-22T02:10:14;29.70;;;26.88;;
69890;SDS011;57170;43.964;21.262;2023-06-22T02:12:42;29.42;;;25.73;;
69890;SDS011;57170;43.964;21.262;2023-06-22T02:15:09;29.08;;;26.23;;
69890;SDS011;57170;43.964;21.262;2023-06-22T02:17:37;29.67;;;26.52;;
69890;SDS011;57170;43.964;21.262;2023-06-22T02:20:04;28.40;;;25.38;;
69890;SDS011;57170;43.964;21.262;2023-06-22T02:22:33;31.05;;;27.98;;
69890;SDS011;57170;43.964;21.262;2023-06-22T02:25:00;28.70;;;25.63;;
69890;SDS011;57170;43.964;21.262;2023-06-22T02:27:26;29.33;;;26.33;;
69890;SDS011;57170;43.964;21.262;2023-06-22T02:29:52;29.02;;;26.00;;
69890;SDS011;57170;43.964;21.262;2023-06-22T02:32:18;30.83;;;27.58;;
69890;SDS011;57170;43.964;21.262;2023-06-22T02:34:44;32.15;;;27.73;;
69890;SDS011;57170;43.964;21.262;2023-06-22T02:37:13;31.70;;;28.33;;
69890;SDS011;57170;43.964;21.262;2023-06-22T02:39:42;35.45;;;28.30;;
69890;SDS011;57170;43.964;21.262;2023-06-22T02:42:08;30.77;;;27.58;;
69890;SDS011;57170;43.964;21.262;2023-06-22T02:44:37;31.55;;;28.33;;
69890;SDS011;57170;43.964;21.262;2023-06-22T02:47:04;33.08;;;29.33;;
69890;SDS011;57170;43.964;21.262;2023-06-22T02:49:30;33.53;;;29.58;;
69890;SDS011;57170;43.964;21.262;2023-06-22T02:51:56;34.17;;;29.92;;
69890;SDS011;57170;43.964;21.262;2023-06-22T02:54:23;33.97;;;28.88;;
69890;SDS011;57170;43.964;21.262;2023-06-22T02:56:49;41.85;;;29.23;;
69890;SDS011;57170;43.964;21.262;2023-06-22T02:59:15;33.05;;;29.65;;
69890;SDS011;57170;43.964;21.262;2023-06-22T03:01:42;32.03;;;28.60;;
69890;SDS011;57170;43.964;21.262;2023-06-22T03:04:10;32.17;;;28.35;;
69890;SDS011;57170;43.964;21.262;2023-06-22T03:06:36;36.58;;;29.63;;
69890;SDS011;57170;43.964;21.262;2023-06-22T03:09:05;32.17;;;28.83;;
69890;SDS011;57170;43.964;21.262;2023-06-22T03:11:32;32.65;;;29.55;;
69890;SDS011;57170;43.964;21.262;2023-06-22T03:13:58;32.78;;;29.23;;
69890;SDS011;57170;43.964;21.262;2023-06-22T03:16:24;31.05;;;27.95;;
69890;SDS011;57170;43.964;21.262;2023-06-22T03:18:51;31.20;;;27.88;;
69890;SDS011;57170;43.964;21.262;2023-06-22T03:21:18;30.80;;;27.70;;
69890;SDS011;57170;43.964;21.262;2023-06-22T03:23:44;28.42;;;25.63;;
69890;SDS011;57170;43.964;21.262;2023-06-22T03:26:10;32.22;;;27.83;;
69890;SDS011;57170;43.964;21.262;2023-06-22T03:28:37;29.05;;;26.00;;
69890;SDS011;57170;43.964;21.262;2023-06-22T03:31:03;30.95;;;27.77;;
69890;SDS011;57170;43.964;21.262;2023-06-22T03:33:31;30.55;;;27.27;;
69890;SDS011;57170;43.964;21.262;2023-06-22T03:35:57;33.40;;;26.27;;
69890;SDS011;57170;43.964;21.262;2023-06-22T03:38:23;35.15;;;26.42;;
69890;SDS011;57170;43.964;21.262;2023-06-22T03:40:50;30.42;;;26.70;;
69890;SDS011;57170;43.964;21.262;2023-06-22T03:43:16;30.52;;;27.45;;
69890;SDS011;57170;43.964;21.262;2023-06-22T03:45:42;31.80;;;28.40;;
69890;SDS011;57170;43.964;21.262;2023-06-22T03:48:10;31.00;;;27.85;;
69890;SDS011;57170;43.964;21.262;2023-06-22T03:50:36;29.17;;;26.33;;
69890;SDS011;57170;43.964;21.262;2023-06-22T03:53:02;30.48;;;27.33;;
69890;SDS011;57170;43.964;21.262;2023-06-22T03:55:29;28.25;;;25.15;;
69890;SDS011;57170;43.964;21.262;2023-06-22T03:57:55;28.10;;;22.85;;
69890;SDS011;57170;43.964;21.262;2023-06-22T04:00:25;28.58;;;25.42;;
69890;SDS011;57170;43.964;21.262;2023-06-22T04:02:51;29.75;;;23.95;;
69890;SDS011;57170;43.964;21.262;2023-06-22T04:05:17;30.63;;;25.65;;
69890;SDS011;57170;43.964;21.262;2023-06-22T04:07:44;26.75;;;24.00;;
69890;SDS011;57170;43.964;21.262;2023-06-22T04:10:10;25.80;;;23.20;;
69890;SDS011;57170;43.964;21.262;2023-06-22T04:12:36;28.02;;;23.75;;
69890;SDS011;57170;43.964;21.262;2023-06-22T04:15:02;25.63;;;22.88;;
69890;SDS011;57170;43.964;21.262;2023-06-22T04:17:28;26.02;;;21.88;;
69890;SDS011;57170;43.964;21.262;2023-06-22T04:19:54;29.80;;;23.77;;
69890;SDS011;57170;43.964;21.262;2023-06-22T04:22:21;25.65;;;21.40;;
69890;SDS011;57170;43.964;21.262;2023-06-22T04:24:47;23.52;;;21.20;;
69890;SDS011;57170;43.964;21.262;2023-06-22T04:27:13;22.13;;;19.88;;
69890;SDS011;57170;43.964;21.262;2023-06-22T04:29:39;21.73;;;19.60;;
69890;SDS011;57170;43.964;21.262;2023-06-22T04:32:14;22.33;;;20.17;;
69890;SDS011;57170;43.964;21.262;2023-06-22T04:34:40;21.17;;;19.20;;
69890;SDS011;57170;43.964;21.262;2023-06-22T04:37:07;21.50;;;19.40;;
69890;SDS011;57170;43.964;21.262;2023-06-22T04:39:33;23.38;;;19.90;;
69890;SDS011;57170;43.964;21.262;2023-06-22T04:41:59;22.88;;;20.35;;
69890;SDS011;57170;43.964;21.262;2023-06-22T04:44:25;20.90;;;18.75;;
69890;SDS011;57170;43.964;21.262;2023-06-22T04:46:52;21.05;;;18.65;;
69890;SDS011;57170;43.964;21.262;2023-06-22T04:49:19;19.83;;;17.83;;
69890;SDS011;57170;43.964;21.262;2023-06-22T04:51:45;20.35;;;18.35;;
69890;SDS011;57170;43.964;21.262;2023-06-22T04:54:12;21.65;;;19.58;;
69890;SDS011;57170;43.964;21.262;2023-06-22T04:56:38;20.00;;;18.10;;
69890;SDS011;57170;43.964;21.262;2023-06-22T04:59:06;19.88;;;17.90;;
69890;SDS011;57170;43.964;21.262;2023-06-22T05:01:32;20.17;;;18.10;;
69890;SDS011;57170;43.964;21.262;2023-06-22T05:04:00;22.48;;;20.15;;
69890;SDS011;57170;43.964;21.262;2023-06-22T05:06:28;20.45;;;18.45;;
69890;SDS011;57170;43.964;21.262;2023-06-22T05:08:55;20.15;;;18.05;;
69890;SDS011;57170;43.964;21.262;2023-06-22T05:11:25;20.15;;;18.02;;
69890;SDS011;57170;43.964;21.262;2023-06-22T05:13:51;20.73;;;18.60;;
69890;SDS011;57170;43.964;21.262;2023-06-22T05:16:18;21.00;;;19.05;;
69890;SDS011;57170;43.964;21.262;2023-06-22T05:18:49;20.30;;;18.58;;
69890;SDS011;57170;43.964;21.262;2023-06-22T05:21:15;21.52;;;19.35;;
69890;SDS011;57170;43.964;21.262;2023-06-22T05:23:41;20.60;;;18.13;;
69890;SDS011;57170;43.964;21.262;2023-06-22T05:26:07;21.63;;;19.45;;
69890;SDS011;57170;43.964;21.262;2023-06-22T05:28:35;19.23;;;17.33;;
69890;SDS011;57170;43.964;21.262;2023-06-22T05:31:01;18.25;;;16.45;;
69890;SDS011;57170;43.964;21.262;2023-06-22T05:33:27;22.05;;;18.40;;
69890;SDS011;57170;43.964;21.262;2023-06-22T05:35:53;19.83;;;17.77;;
69890;SDS011;57170;43.964;21.262;2023-06-22T05:38:19;19.60;;;17.77;;
69890;SDS011;57170;43.964;21.262;2023-06-22T05:40:45;18.55;;;16.58;;
69890;SDS011;57170;43.964;21.262;2023-06-22T05:43:12;18.33;;;16.58;;
69890;SDS011;57170;43.964;21.262;2023-06-22T05:45:38;18.33;;;16.35;;
69890;SDS011;57170;43.964;21.262;2023-06-22T05:48:04;19.10;;;17.20;;
69890;SDS011;57170;43.964;21.262;2023-06-22T05:50:31;18.80;;;16.83;;
69890;SDS011;57170;43.964;21.262;2023-06-22T05:52:57;19.70;;;17.48;;
69890;SDS011;57170;43.964;21.262;2023-06-22T05:55:23;19.23;;;17.02;;
69890;SDS011;57170;43.964;21.262;2023-06-22T05:57:49;19.75;;;17.70;;
69890;SDS011;57170;43.964;21.262;2023-06-22T06:00:15;18.70;;;17.10;;
69890;SDS011;57170;43.964;21.262;2023-06-22T06:02:41;16.90;;;15.52;;
69890;SDS011;57170;43.964;21.262;2023-06-22T06:05:09;19.15;;;17.52;;
69890;SDS011;57170;43.964;21.262;2023-06-22T06:07:35;17.48;;;15.63;;
69890;SDS011;57170;43.964;21.262;2023-06-22T06:10:02;18.42;;;16.73;;
69890;SDS011;57170;43.964;21.262;2023-06-22T06:12:29;18.13;;;16.30;;
69890;SDS011;57170;43.964;21.262;2023-06-22T06:14:55;22.77;;;17.00;;
69890;SDS011;57170;43.964;21.262;2023-06-22T06:17:22;18.20;;;16.42;;
69890;SDS011;57170;43.964;21.262;2023-06-22T06:19:48;17.40;;;15.77;;
69890;SDS011;57170;43.964;21.262;2023-06-22T06:22:14;19.00;;;15.52;;
69890;SDS011;57170;43.964;21.262;2023-06-22T06:24:40;18.38;;;16.70;;
69890;SDS011;57170;43.964;21.262;2023-06-22T06:27:06;17.98;;;15.95;;
69890;SDS011;57170;43.964;21.262;2023-06-22T06:29:33;17.52;;;15.93;;
69890;SDS011;57170;43.964;21.262;2023-06-22T06:31:59;18.98;;;17.10;;
69890;SDS011;57170;43.964;21.262;2023-06-22T06:34:25;19.55;;;17.45;;
69890;SDS011;57170;43.964;21.262;2023-06-22T06:36:51;18.00;;;16.35;;
69890;SDS011;57170;43.964;21.262;2023-06-22T06:39:17;18.98;;;16.98;;
69890;SDS011;57170;43.964;21.262;2023-06-22T06:41:43;18.42;;;16.55;;
69890;SDS011;57170;43.964;21.262;2023-06-22T06:44:09;17.40;;;15.90;;
69890;SDS011;57170;43.964;21.262;2023-06-22T06:46:36;17.77;;;16.13;;
69890;SDS011;57170;43.964;21.262;2023-06-22T06:49:03;19.73;;;17.85;;
69890;SDS011;57170;43.964;21.262;2023-06-22T06:51:29;17.73;;;16.13;;
69890;SDS011;57170;43.964;21.262;2023-06-22T06:53:55;18.33;;;16.45;;
69890;SDS011;57170;43.964;21.262;2023-06-22T06:56:21;18.77;;;17.17;;
69890;SDS011;57170;43.964;21.262;2023-06-22T06:58:49;18.10;;;16.27;;
69890;SDS011;57170;43.964;21.262;2023-06-22T07:01:15;18.20;;;16.42;;
69890;SDS011;57170;43.964;21.262;2023-06-22T07:03:41;20.98;;;17.27;;
69890;SDS011;57170;43.964;21.262;2023-06-22T07:06:08;21.10;;;16.90;;
69890;SDS011;57170;43.964;21.262;2023-06-22T07:08:34;17.58;;;15.82;;
69890;SDS011;57170;43.964;21.262;2023-06-22T07:11:01;19.02;;;17.33;;
69890;SDS011;57170;43.964;21.262;2023-06-22T07:13:28;17.90;;;16.33;;
69890;SDS011;57170;43.964;21.262;2023-06-22T07:15:54;17.35;;;15.55;;
69890;SDS011;57170;43.964;21.262;2023-06-22T07:18:20;17.88;;;16.27;;
69890;SDS011;57170;43.964;21.262;2023-06-22T07:20:46;19.73;;;18.08;;
69890;SDS011;57170;43.964;21.262;2023-06-22T07:23:12;17.85;;;16.23;;
69890;SDS011;57170;43.964;21.262;2023-06-22T07:25:38;23.45;;;17.98;;
69890;SDS011;57170;43.964;21.262;2023-06-22T07:28:05;18.45;;;16.80;;
69890;SDS011;57170;43.964;21.262;2023-06-22T07:30:32;18.85;;;17.20;;
69890;SDS011;57170;43.964;21.262;2023-06-22T07:32:59;18.50;;;16.75;;
69890;SDS011;57170;43.964;21.262;2023-06-22T07:35:32;17.27;;;15.77;;
69890;SDS011;57170;43.964;21.262;2023-06-22T07:37:58;18.42;;;16.83;;
69890;SDS011;57170;43.964;21.262;2023-06-22T07:40:24;18.95;;;17.30;;
69890;SDS011;57170;43.964;21.262;2023-06-22T07:42:50;19.52;;;17.63;;
69890;SDS011;57170;43.964;21.262;2023-06-22T07:45:17;18.13;;;16.67;;
69890;SDS011;57170;43.964;21.262;2023-06-22T07:47:43;18.83;;;16.52;;
69890;SDS011;57170;43.964;21.262;2023-06-22T07:50:09;18.40;;;16.83;;
69890;SDS011;57170;43.964;21.262;2023-06-22T07:52:36;17.48;;;15.75;;
69890;SDS011;57170;43.964;21.262;2023-06-22T07:55:02;17.17;;;15.45;;
69890;SDS011;57170;43.964;21.262;2023-06-22T07:57:29;17.88;;;16.20;;
69890;SDS011;57170;43.964;21.262;2023-06-22T07:59:59;17.33;;;15.73;;
69890;SDS011;57170;43.964;21.262;2023-06-22T08:02:26;18.10;;;16.58;;
69890;SDS011;57170;43.964;21.262;2023-06-22T08:04:52;17.02;;;15.35;;
69890;SDS011;57170;43.964;21.262;2023-06-22T08:07:18;17.60;;;16.00;;
69890;SDS011;57170;43.964;21.262;2023-06-22T08:09:48;18.05;;;15.20;;
69890;SDS011;57170;43.964;21.262;2023-06-22T08:12:15;17.98;;;16.42;;
69890;SDS011;57170;43.964;21.262;2023-06-22T08:14:42;15.45;;;14.23;;
69890;SDS011;57170;43.964;21.262;2023-06-22T08:17:11;14.63;;;13.23;;
69890;SDS011;57170;43.964;21.262;2023-06-22T08:19:37;15.10;;;13.90;;
69890;SDS011;57170;43.964;21.262;2023-06-22T08:22:04;14.80;;;13.50;;
69890;SDS011;57170;43.964;21.262;2023-06-22T08:24:30;14.60;;;13.20;;
69890;SDS011;57170;43.964;21.262;2023-06-22T08:26:56;12.32;;;11.25;;
69890;SDS011;57170;43.964;21.262;2023-06-22T08:29:22;14.73;;;13.35;;
69890;SDS011;57170;43.964;21.262;2023-06-22T08:31:48;14.38;;;13.27;;
69890;SDS011;57170;43.964;21.262;2023-06-22T08:34:14;13.93;;;12.82;;
69890;SDS011;57170;43.964;21.262;2023-06-22T08:36:40;15.05;;;13.65;;
69890;SDS011;57170;43.964;21.262;2023-06-22T08:39:10;13.90;;;12.40;;
69890;SDS011;57170;43.964;21.262;2023-06-22T08:41:36;14.85;;;13.55;;
69890;SDS011;57170;43.964;21.262;2023-06-22T08:44:02;14.38;;;13.15;;
69890;SDS011;57170;43.964;21.262;2023-06-22T08:46:29;13.75;;;12.52;;
69890;SDS011;57170;43.964;21.262;2023-06-22T08:48:57;15.52;;;14.23;;
69890;SDS011;57170;43.964;21.262;2023-06-22T08:51:23;14.55;;;13.32;;
69890;SDS011;57170;43.964;21.262;2023-06-22T08:53:49;14.70;;;12.95;;
69890;SDS011;57170;43.964;21.262;2023-06-22T08:56:16;15.57;;;13.95;;
69890;SDS011;57170;43.964;21.262;2023-06-22T08:58:42;15.18;;;13.85;;
69890;SDS011;57170;43.964;21.262;2023-06-22T09:01:08;13.93;;;12.73;;
69890;SDS011;57170;43.964;21.262;2023-06-22T09:03:34;13.50;;;12.27;;
69890;SDS011;57170;43.964;21.262;2023-06-22T09:06:02;13.68;;;12.48;;
69890;SDS011;57170;43.964;21.262;2023-06-22T09:08:28;14.90;;;13.70;;
69890;SDS011;57170;43.964;21.262;2023-06-22T09:10:54;14.30;;;13.07;;
69890;SDS011;57170;43.964;21.262;2023-06-22T09:13:20;13.88;;;12.77;;
69890;SDS011;57170;43.964;21.262;2023-06-22T09:15:47;18.73;;;13.13;;
69890;SDS011;57170;43.964;21.262;2023-06-22T09:18:13;12.50;;;11.43;;
69890;SDS011;57170;43.964;21.262;2023-06-22T09:20:39;14.60;;;13.13;;
69890;SDS011;57170;43.964;21.262;2023-06-22T09:23:05;13.80;;;12.40;;
69890;SDS011;57170;43.964;21.262;2023-06-22T09:25:32;12.65;;;11.32;;
69890;SDS011;57170;43.964;21.262;2023-06-22T09:27:58;14.25;;;11.52;;
69890;SDS011;57170;43.964;21.262;2023-06-22T09:30:24;12.13;;;11.05;;
69890;SDS011;57170;43.964;21.262;2023-06-22T09:32:50;12.50;;;11.40;;
69890;SDS011;57170;43.964;21.262;2023-06-22T09:35:17;13.73;;;12.30;;
69890;SDS011;57170;43.964;21.262;2023-06-22T09:37:43;12.77;;;11.52;;
69890;SDS011;57170;43.964;21.262;2023-06-22T09:40:10;12.13;;;11.02;;
69890;SDS011;57170;43.964;21.262;2023-06-22T09:42:37;13.02;;;11.93;;
69890;SDS011;57170;43.964;21.262;2023-06-22T09:45:04;13.80;;;12.50;;
69890;SDS011;57170;43.964;21.262;2023-06-22T09:47:30;14.10;;;12.90;;
69890;SDS011;57170;43.964;21.262;2023-06-22T09:49:56;15.93;;;11.80;;
69890;SDS011;57170;43.964;21.262;2023-06-22T09:52:24;17.85;;;12.98;;
69890;SDS011;57170;43.964;21.262;2023-06-22T09:54:51;14.63;;;13.13;;
69890;SDS011;57170;43.964;21.262;2023-06-22T09:57:17;15.65;;;13.95;;
69890;SDS011;57170;43.964;21.262;2023-06-22T09:59:43;15.60;;;14.00;;
69890;SDS011;57170;43.964;21.262;2023-06-22T10:02:09;24.20;;;16.00;;
69890;SDS011;57170;43.964;21.262;2023-06-22T10:04:35;15.10;;;13.48;;
69890;SDS011;57170;43.964;21.262;2023-06-22T10:07:02;15.27;;;13.45;;
69890;SDS011;57170;43.964;21.262;2023-06-22T10:09:28;14.95;;;13.38;;
69890;SDS011;57170;43.964;21.262;2023-06-22T10:11:54;15.82;;;14.23;;
69890;SDS011;57170;43.964;21.262;2023-06-22T10:14:20;16.13;;;14.20;;
69890;SDS011;57170;43.964;21.262;2023-06-22T10:16:47;14.85;;;13.45;;
69890;SDS011;57170;43.964;21.262;2023-06-22T10:19:13;15.20;;;13.77;;
69890;SDS011;57170;43.964;21.262;2023-06-22T10:21:40;16.38;;;13.18;;
69890;SDS011;57170;43.964;21.262;2023-06-22T10:24:06;16.05;;;14.50;;
69890;SDS011;57170;43.964;21.262;2023-06-22T10:26:32;16.15;;;14.32;;
69890;SDS011;57170;43.964;21.262;2023-06-22T10:28:59;17.30;;;15.30;;
69890;SDS011;57170;43.964;21.262;2023-06-22T10:31:25;16.33;;;13.90;;
69890;SDS011;57170;43.964;21.262;2023-06-22T10:33:52;31.02;;;18.25;;
69890;SDS011;57170;43.964;21.262;2023-06-22T10:36:19;30.77;;;17.80;;
69890;SDS011;57170;43.964;21.262;2023-06-22T10:38:45;17.08;;;14.32;;
69890;SDS011;57170;43.964;21.262;2023-06-22T10:41:12;16.60;;;14.52;;
69890;SDS011;57170;43.964;21.262;2023-06-22T10:43:38;19.92;;;14.77;;
69890;SDS011;57170;43.964;21.262;2023-06-22T10:46:04;15.02;;;12.60;;
69890;SDS011;57170;43.964;21.262;2023-06-22T10:48:30;13.05;;;11.85;;
69890;SDS011;57170;43.964;21.262;2023-06-22T10:50:56;16.08;;;14.38;;
69890;SDS011;57170;43.964;21.262;2023-06-22T10:53:22;13.30;;;11.90;;
69890;SDS011;57170;43.964;21.262;2023-06-22T10:55:48;14.07;;;12.10;;
69890;SDS011;57170;43.964;21.262;2023-06-22T10:58:17;15.13;;;13.70;;
69890;SDS011;57170;43.964;21.262;2023-06-22T11:00:44;14.50;;;13.05;;
69890;SDS011;57170;43.964;21.262;2023-06-22T11:03:10;13.73;;;12.43;;
69890;SDS011;57170;43.964;21.262;2023-06-22T11:05:37;14.02;;;12.63;;
69890;SDS011;57170;43.964;21.262;2023-06-22T11:08:03;14.82;;;12.82;;
69890;SDS011;57170;43.964;21.262;2023-06-22T11:10:29;13.32;;;11.77;;
69890;SDS011;57170;43.964;21.262;2023-06-22T11:12:55;17.17;;;12.57;;
69890;SDS011;57170;43.964;21.262;2023-06-22T11:15:23;38.40;;;18.73;;
69890;SDS011;57170;43.964;21.262;2023-06-22T11:17:49;15.93;;;11.75;;
69890;SDS011;57170;43.964;21.262;2023-06-22T11:20:15;17.55;;;12.32;;
69890;SDS011;57170;43.964;21.262;2023-06-22T11:22:41;12.52;;;11.32;;
69890;SDS011;57170;43.964;21.262;2023-06-22T11:25:07;14.45;;;11.73;;
69890;SDS011;57170;43.964;21.262;2023-06-22T11:27:34;12.65;;;10.82;;
69890;SDS011;57170;43.964;21.262;2023-06-22T11:30:00;13.30;;;11.20;;
69890;SDS011;57170;43.964;21.262;2023-06-22T11:32:26;16.30;;;12.75;;
69890;SDS011;57170;43.964;21.262;2023-06-22T11:34:52;14.23;;;12.45;;
69890;SDS011;57170;43.964;21.262;2023-06-22T11:37:18;12.25;;;11.05;;
69890;SDS011;57170;43.964;21.262;2023-06-22T11:39:44;11.55;;;10.45;;
69890;SDS011;57170;43.964;21.262;2023-06-22T11:42:10;14.13;;;11.32;;
69890;SDS011;57170;43.964;21.262;2023-06-22T11:44:36;19.48;;;10.75;;
69890;SDS011;57170;43.964;21.262;2023-06-22T11:47:03;14.95;;;10.80;;
69890;SDS011;57170;43.964;21.262;2023-06-22T11:49:32;12.98;;;10.90;;
69890;SDS011;57170;43.964;21.262;2023-06-22T11:51:58;12.95;;;10.60;;
69890;SDS011;57170;43.964;21.262;2023-06-22T11:54:24;13.27;;;11.88;;
69890;SDS011;57170;43.964;21.262;2023-06-22T11:56:50;13.63;;;12.13;;
69890;SDS011;57170;43.964;21.262;2023-06-22T11:59:16;13.32;;;10.77;;
69890;SDS011;57170;43.964;21.262;2023-06-22T12:01:43;12.13;;;9.68;;
69890;SDS011;57170;43.964;21.262;2023-06-22T12:04:09;11.63;;;10.43;;
69890;SDS011;57170;43.964;21.262;2023-06-22T12:06:37;11.60;;;10.30;;
69890;SDS011;57170;43.964;21.262;2023-06-22T12:09:06;12.25;;;9.20;;
69890;SDS011;57170;43.964;21.262;2023-06-22T12:11:33;11.80;;;10.60;;
69890;SDS011;57170;43.964;21.262;2023-06-22T12:13:59;14.15;;;9.77;;
69890;SDS011;57170;43.964;21.262;2023-06-22T12:16:27;13.95;;;11.40;;
69890;SDS011;57170;43.964;21.262;2023-06-22T12:18:53;12.63;;;10.57;;
69890;SDS011;57170;43.964;21.262;2023-06-22T12:21:19;11.05;;;9.95;;
69890;SDS011;57170;43.964;21.262;2023-06-22T12:23:45;12.98;;;9.70;;
69890;SDS011;57170;43.964;21.262;2023-06-22T12:26:12;11.98;;;10.30;;
69890;SDS011;57170;43.964;21.262;2023-06-22T12:28:38;12.75;;;10.38;;
69890;SDS011;57170;43.964;21.262;2023-06-22T12:31:04;13.98;;;10.00;;
69890;SDS011;57170;43.964;21.262;2023-06-22T12:33:30;11.68;;;10.10;;
69890;SDS011;57170;43.964;21.262;2023-06-22T12:35:56;11.38;;;9.93;;
69890;SDS011;57170;43.964;21.262;2023-06-22T12:38:22;10.48;;;9.38;;
69890;SDS011;57170;43.964;21.262;2023-06-22T12:40:51;12.57;;;10.50;;
69890;SDS011;57170;43.964;21.262;2023-06-22T12:43:17;13.90;;;10.02;;
69890;SDS011;57170;43.964;21.262;2023-06-22T12:45:43;11.90;;;10.27;;
69890;SDS011;57170;43.964;21.262;2023-06-22T12:48:09;11.00;;;9.85;;
69890;SDS011;57170;43.964;21.262;2023-06-22T12:50:36;11.68;;;10.30;;
69890;SDS011;57170;43.964;21.262;2023-06-22T12:53:02;13.13;;;9.25;;
69890;SDS011;57170;43.964;21.262;2023-06-22T12:55:29;12.73;;;10.95;;
69890;SDS011;57170;43.964;21.262;2023-06-22T12:57:55;12.48;;;10.82;;
69890;SDS011;57170;43.964;21.262;2023-06-22T13:00:21;11.27;;;10.05;;
69890;SDS011;57170;43.964;21.262;2023-06-22T13:02:47;12.15;;;10.82;;
69890;SDS011;57170;43.964;21.262;2023-06-22T13:05:13;13.05;;;10.18;;
69890;SDS011;57170;43.964;21.262;2023-06-22T13:07:39;13.25;;;10.55;;
69890;SDS011;57170;43.964;21.262;2023-06-22T13:10:07;13.18;;;10.63;;
69890;SDS011;57170;43.964;21.262;2023-06-22T13:12:34;10.93;;;9.55;;
69890;SDS011;57170;43.964;21.262;2023-06-22T13:15:00;10.93;;;9.70;;
69890;SDS011;57170;43.964;21.262;2023-06-22T13:17:28;13.13;;;9.57;;
69890;SDS011;57170;43.964;21.262;2023-06-22T13:19:54;12.88;;;9.90;;
69890;SDS011;57170;43.964;21.262;2023-06-22T13:24:54;12.07;;;10.23;;
69890;SDS011;57170;43.964;21.262;2023-06-22T13:27:20;13.52;;;9.82;;
69890;SDS011;57170;43.964;21.262;2023-06-22T13:29:46;11.52;;;9.93;;
69890;SDS011;57170;43.964;21.262;2023-06-22T13:32:12;10.95;;;9.85;;
69890;SDS011;57170;43.964;21.262;2023-06-22T13:34:38;13.15;;;11.07;;
69890;SDS011;57170;43.964;21.262;2023-06-22T13:37:04;11.07;;;9.60;;
69890;SDS011;57170;43.964;21.262;2023-06-22T13:39:30;12.75;;;11.10;;
69890;SDS011;57170;43.964;21.262;2023-06-22T13:41:57;10.65;;;9.55;;
69890;SDS011;57170;43.964;21.262;2023-06-22T13:44:23;12.05;;;10.43;;
69890;SDS011;57170;43.964;21.262;2023-06-22T13:46:53;11.50;;;10.30;;
69890;SDS011;57170;43.964;21.262;2023-06-22T13:49:19;12.18;;;10.02;;
69890;SDS011;57170;43.964;21.262;2023-06-22T13:51:46;13.85;;;9.93;;
69890;SDS011;57170;43.964;21.262;2023-06-22T13:54:13;11.27;;;9.82;;
69890;SDS011;57170;43.964;21.262;2023-06-22T13:56:39;12.23;;;10.00;;
69890;SDS011;57170;43.964;21.262;2023-06-22T13:59:06;11.98;;;9.75;;
69890;SDS011;57170;43.964;21.262;2023-06-22T14:01:34;13.07;;;10.18;;
69890;SDS011;57170;43.964;21.262;2023-06-22T14:04:00;10.50;;;9.40;;
69890;SDS011;57170;43.964;21.262;2023-06-22T14:06:29;14.20;;;9.73;;
69890;SDS011;57170;43.964;21.262;2023-06-22T14:08:55;13.35;;;10.70;;
69890;SDS011;57170;43.964;21.262;2023-06-22T14:11:21;12.07;;;10.85;;
69890;SDS011;57170;43.964;21.262;2023-06-22T14:13:48;12.85;;;10.68;;
69890;SDS011;57170;43.964;21.262;2023-06-22T14:16:14;11.05;;;9.85;;
69890;SDS011;57170;43.964;21.262;2023-06-22T14:18:40;12.95;;;10.60;;